Time;durP1;ratioP1;P1;durP2;ratioP2;P2;SDS_P1;SDS_P2;PMS_P1;PMS_P2;Temp;Humidity;BMP_temperature;BMP_pressure;BME280_temperature;BME280_humidity;BME280_pressure;Samples;Min_cycle;Max_cycle;Signal;HPM_P1;HPM_P2
2023/08/31 00:00:11;;;;;;;12.50;3.20;;;21.50;99.00;;;;;;5046720;28;20156;-75
2023/08/31 00:02:40;;;;;;;6.63;3.00;;;21.70;98.50;;;;;;5046635;28;20029;-75
2023/08/31 00:05:08;;;;;;;7.00;2.97;;;21.90;98.40;;;;;;5040671;28;20037;-75
2023/08/31 00:07:35;;;;;;;6.30;2.90;;;21.90;99.00;;;;;;5051366;28;20372;-75
2023/08/31 00:10:09;;;;;;;5.32;2.90;;;21.90;99.60;;;;;;5050622;28;20388;-76
2023/08/31 00:12:36;;;;;;;12.82;3.08;;;21.90;99.40;;;;;;5046632;28;20454;-75
2023/08/31 00:15:04;;;;;;;10.82;3.05;;;22.00;99.30;;;;;;5032593;28;20116;-75
2023/08/31 00:17:32;;;;;;;8.80;3.10;;;22.00;99.00;;;;;;5050478;28;20431;-74
2023/08/31 00:19:59;;;;;;;6.38;3.10;;;22.10;98.70;;;;;;5050653;28;20033;-72
2023/08/31 00:22:27;;;;;;;6.25;3.50;;;22.00;98.70;;;;;;5032559;28;20041;-75
2023/08/31 00:24:54;;;;;;;7.75;3.25;;;22.00;98.80;;;;;;5032424;28;20040;-74
2023/08/31 00:27:21;;;;;;;8.68;3.25;;;21.90;99.30;;;;;;5030419;28;20032;-74
2023/08/31 00:29:49;;;;;;;8.43;3.30;;;22.00;99.70;;;;;;5050114;28;20066;-75
2023/08/31 00:32:22;;;;;;;7.72;3.17;;;21.90;99.90;;;;;;5049958;28;20036;-74
2023/08/31 00:34:50;;;;;;;9.55;3.55;;;21.90;99.90;;;;;;5032614;28;20098;-72
2023/08/31 00:37:18;;;;;;;7.07;3.95;;;21.70;99.90;;;;;;5051596;28;20033;-75
2023/08/31 00:39:45;;;;;;;6.32;3.33;;;21.70;99.90;;;;;;5049853;28;20025;-73
2023/08/31 00:42:14;;;;;;;7.20;3.78;;;21.70;99.90;;;;;;5032803;28;20037;-74
2023/08/31 00:44:41;;;;;;;10.38;3.78;;;21.70;99.90;;;;;;5052371;28;20045;-75
2023/08/31 00:47:08;;;;;;;6.38;3.17;;;21.80;99.90;;;;;;5047956;28;20024;-72
2023/08/31 00:49:35;;;;;;;7.35;3.53;;;21.70;99.90;;;;;;5047292;28;20422;-75
2023/08/31 00:52:04;;;;;;;8.15;4.05;;;21.70;99.90;;;;;;5049725;28;20507;-75
2023/08/31 00:54:32;;;;;;;10.85;3.72;;;21.70;99.90;;;;;;5053923;28;20132;-73
2023/08/31 00:56:59;;;;;;;7.15;3.30;;;21.30;99.90;;;;;;5049442;28;20025;-73
2023/08/31 00:59:26;;;;;;;9.98;3.30;;;20.80;99.90;;;;;;5050079;28;20040;-74
2023/08/31 01:02:07;;;;;;;6.55;3.72;;;20.80;99.90;;;;;;5047490;28;20087;-74
2023/08/31 01:05:17;;;;;;;7.45;3.40;;;21.30;99.90;;;;;;5050084;28;20037;-74
2023/08/31 01:08:00;;;;;;;9.10;3.45;;;21.60;99.90;;;;;;4955059;28;20031;-76
2023/08/31 01:10:46;;;;;;;6.00;3.20;;;21.60;99.90;;;;;;4966165;28;20046;-74
2023/08/31 01:13:21;;;;;;;9.93;3.22;;;21.70;99.90;;;;;;5028153;28;20055;-72
2023/08/31 01:15:53;;;;;;;9.82;3.38;;;21.70;99.90;;;;;;5048928;28;20033;-72
2023/08/31 01:18:25;;;;;;;6.05;3.10;;;21.90;99.90;;;;;;5031773;28;20047;-75
2023/08/31 01:21:00;;;;;;;8.15;3.33;;;21.90;99.90;;;;;;5031074;28;20047;-72
2023/08/31 01:23:41;;;;;;;8.32;3.30;;;21.90;99.90;;;;;;5049790;28;20041;-75
2023/08/31 01:26:10;;;;;;;10.50;3.17;;;21.90;99.90;;;;;;5045381;28;20476;-74
2023/08/31 01:28:38;;;;;;;6.95;2.75;;;22.10;99.80;;;;;;5039043;28;20040;-75
2023/08/31 01:31:06;;;;;;;8.57;3.10;;;22.00;99.70;;;;;;5048973;28;20116;-74
2023/08/31 01:33:33;;;;;;;9.38;3.88;;;21.90;99.90;;;;;;5014033;28;20041;-73
2023/08/31 01:36:36;;;;;;;8.30;2.80;;;21.90;99.90;;;;;;5047812;28;20047;-74
2023/08/31 01:39:09;;;;;;;6.95;3.90;;;21.80;99.90;;;;;;5031762;28;20067;-74
2023/08/31 01:41:40;;;;;;;8.43;3.35;;;21.80;99.90;;;;;;5049205;28;20375;-73
2023/08/31 01:44:14;;;;;;;6.82;3.20;;;21.80;99.90;;;;;;5015005;28;20044;-75
2023/08/31 01:46:41;;;;;;;7.32;3.10;;;21.80;99.90;;;;;;5012648;28;20052;-74
2023/08/31 01:49:10;;;;;;;6.65;3.40;;;21.90;99.90;;;;;;5044909;28;20033;-74
2023/08/31 01:51:37;;;;;;;12.25;3.30;;;21.80;99.90;;;;;;5049423;28;20504;-74
2023/08/31 01:54:05;;;;;;;8.60;2.80;;;21.70;99.90;;;;;;5049038;28;20036;-75
2023/08/31 01:56:32;;;;;;;6.70;2.83;;;21.70;99.90;;;;;;5048720;28;20108;-73
2023/08/31 01:58:59;;;;;;;7.22;3.03;;;21.80;99.90;;;;;;5031384;28;20029;-73
2023/08/31 02:01:27;;;;;;;6.10;3.22;;;21.80;99.90;;;;;;5046307;28;20050;-73
2023/08/31 02:03:54;;;;;;;7.82;3.30;;;21.60;99.90;;;;;;5048678;28;20118;-74
2023/08/31 02:06:21;;;;;;;7.35;2.80;;;21.60;99.90;;;;;;5031712;28;20044;-72
2023/08/31 02:08:48;;;;;;;9.15;3.03;;;21.60;99.90;;;;;;5049297;28;20036;-73
2023/08/31 02:11:15;;;;;;;7.63;2.83;;;21.90;99.90;;;;;;5051208;28;20037;-73
2023/08/31 02:13:43;;;;;;;6.63;3.08;;;21.90;99.90;;;;;;5031190;28;20040;-75
2023/08/31 02:16:10;;;;;;;6.65;2.90;;;21.90;99.90;;;;;;5048056;28;20039;-75
2023/08/31 02:18:37;;;;;;;6.88;3.20;;;21.90;99.90;;;;;;5049216;28;20108;-76
2023/08/31 02:21:07;;;;;;;7.30;3.50;;;21.80;99.90;;;;;;5031386;28;20358;-73
2023/08/31 02:23:34;;;;;;;5.57;2.53;;;21.70;99.90;;;;;;5048136;28;20068;-75
2023/08/31 02:26:01;;;;;;;6.07;2.47;;;21.80;99.90;;;;;;5048357;28;20087;-73
2023/08/31 02:28:29;;;;;;;4.85;2.78;;;20.80;99.90;;;;;;5036825;28;20055;-75
2023/08/31 02:31:02;;;;;;;6.65;2.67;;;20.00;99.90;;;;;;5054385;28;20419;-75
2023/08/31 02:33:29;;;;;;;10.15;2.53;;;20.10;99.90;;;;;;5051975;28;20029;-74
2023/08/31 02:35:57;;;;;;;6.60;2.95;;;20.00;99.90;;;;;;5051761;28;20420;-74
2023/08/31 02:38:24;;;;;;;7.00;2.90;;;20.00;99.90;;;;;;5052982;28;20155;-72
2023/08/31 02:40:52;;;;;;;8.18;3.38;;;20.60;99.90;;;;;;5052083;28;20368;-73
2023/08/31 02:43:19;;;;;;;6.20;3.00;;;20.20;99.90;;;;;;5052349;28;20424;-74
2023/08/31 02:45:46;;;;;;;6.68;3.08;;;19.60;99.90;;;;;;5051771;28;20120;-72
2023/08/31 02:48:13;;;;;;;7.60;2.97;;;19.40;99.90;;;;;;5051021;28;20098;-73
2023/08/31 02:50:41;;;;;;;8.27;3.20;;;20.20;99.90;;;;;;5031021;28;20484;-73
2023/08/31 02:53:08;;;;;;;6.18;3.20;;;20.70;99.90;;;;;;5034378;28;20771;-73
2023/08/31 02:55:36;;;;;;;5.85;3.40;;;20.80;99.90;;;;;;5052366;28;20044;-74
2023/08/31 02:58:03;;;;;;;4.28;2.60;;;20.80;99.90;;;;;;5051522;28;20384;-73
2023/08/31 03:00:30;;;;;;;5.78;2.78;;;20.80;99.90;;;;;;5052106;28;20041;-74
2023/08/31 03:02:57;;;;;;;8.63;3.28;;;20.80;99.90;;;;;;5051302;28;20037;-73
2023/08/31 03:05:25;;;;;;;5.88;2.60;;;20.70;99.90;;;;;;5052587;28;20043;-73
2023/08/31 03:07:53;;;;;;;5.40;2.42;;;20.20;99.90;;;;;;5051759;28;20037;-73
2023/08/31 03:10:21;;;;;;;6.57;2.40;;;19.90;99.90;;;;;;5051330;28;20037;-74
2023/08/31 03:12:48;;;;;;;3.92;2.28;;;20.00;99.90;;;;;;5033649;28;20044;-73
2023/08/31 03:15:15;;;;;;;4.65;2.35;;;19.80;99.90;;;;;;5052331;28;20353;-74
2023/08/31 03:17:43;;;;;;;9.60;2.88;;;19.70;99.90;;;;;;5033922;28;20102;-75
2023/08/31 03:20:10;;;;;;;4.55;2.53;;;19.60;99.90;;;;;;5051435;28;20048;-74
2023/08/31 03:22:38;;;;;;;4.20;2.55;;;19.70;99.90;;;;;;5048218;28;20391;-73
2023/08/31 03:25:05;;;;;;;6.35;2.53;;;19.70;99.90;;;;;;5031547;28;20044;-74
2023/08/31 03:27:32;;;;;;;5.32;2.50;;;19.70;99.90;;;;;;5031588;28;20045;-74
2023/08/31 03:29:59;;;;;;;4.40;2.40;;;19.70;99.90;;;;;;4989299;28;20046;-75
2023/08/31 03:32:27;;;;;;;7.18;2.75;;;19.60;99.90;;;;;;5028390;28;20033;-73
2023/08/31 03:34:54;;;;;;;4.45;2.75;;;19.60;99.90;;;;;;5011835;28;20038;-74
2023/08/31 03:37:21;;;;;;;5.00;2.78;;;19.60;99.90;;;;;;5031468;28;20040;-73
2023/08/31 03:39:49;;;;;;;4.45;2.40;;;19.60;99.90;;;;;;5014393;28;20046;-73
2023/08/31 03:42:16;;;;;;;5.38;2.50;;;19.50;99.90;;;;;;5010656;28;20033;-74
2023/08/31 03:44:43;;;;;;;5.38;2.50;;;19.50;99.90;;;;;;5028075;28;20049;-74
2023/08/31 03:47:11;;;;;;;5.75;2.50;;;19.70;99.90;;;;;;5013617;28;20164;-74
2023/08/31 03:49:38;;;;;;;5.80;3.42;;;19.70;99.90;;;;;;5031581;28;20134;-75
2023/08/31 03:52:06;;;;;;;5.35;2.33;;;19.90;99.90;;;;;;5031098;28;20033;-77
2023/08/31 03:54:35;;;;;;;4.80;2.83;;;20.00;99.90;;;;;;5031285;28;20380;-74
2023/08/31 03:57:04;;;;;;;4.85;2.58;;;20.20;99.90;;;;;;5031247;28;20037;-74
2023/08/31 03:59:31;;;;;;;5.70;2.67;;;20.30;99.90;;;;;;5031598;28;20036;-74
2023/08/31 04:01:59;;;;;;;8.38;3.45;;;20.50;99.90;;;;;;5031104;28;20037;-74
2023/08/31 04:04:26;;;;;;;4.93;2.70;;;20.60;99.90;;;;;;5031148;28;20055;-74
2023/08/31 04:06:53;;;;;;;4.55;2.35;;;20.60;99.90;;;;;;5031205;28;20105;-73
2023/08/31 04:09:20;;;;;;;6.75;2.70;;;20.70;99.90;;;;;;5031238;28;20033;-73
2023/08/31 04:11:48;;;;;;;6.95;3.10;;;20.50;99.90;;;;;;5013253;28;20088;-73
2023/08/31 04:14:15;;;;;;;7.65;2.65;;;19.70;99.90;;;;;;5030983;28;20064;-72
2023/08/31 04:16:42;;;;;;;8.10;2.70;;;19.10;99.90;;;;;;5031207;28;20051;-73
2023/08/31 04:19:09;;;;;;;5.30;2.70;;;19.20;99.90;;;;;;4996480;28;20748;-72
2023/08/31 04:21:37;;;;;;;7.25;2.97;;;19.00;99.90;;;;;;5030717;28;20064;-71
2023/08/31 04:24:05;;;;;;;5.95;2.67;;;19.00;99.90;;;;;;5016007;28;20045;-72
2023/08/31 04:26:32;;;;;;;4.72;2.55;;;18.90;99.90;;;;;;5030165;28;20037;-71
2023/08/31 04:28:59;;;;;;;4.78;3.22;;;18.90;99.90;;;;;;5034996;28;20380;-73
2023/08/31 04:31:27;;;;;;;5.00;3.00;;;19.00;99.90;;;;;;5036359;28;20036;-73
2023/08/31 04:33:54;;;;;;;8.43;2.63;;;19.30;99.90;;;;;;5034176;28;20032;-76
2023/08/31 04:36:22;;;;;;;5.22;2.63;;;19.50;99.90;;;;;;5018852;28;20140;-75
2023/08/31 04:38:49;;;;;;;6.68;3.00;;;19.80;99.90;;;;;;5017352;28;20044;-73
2023/08/31 04:41:16;;;;;;;6.35;2.90;;;19.80;99.90;;;;;;5037125;28;20029;-76
2023/08/31 04:43:43;;;;;;;7.15;2.80;;;19.20;99.90;;;;;;5015332;28;20037;-74
2023/08/31 04:46:10;;;;;;;7.70;3.03;;;18.80;99.90;;;;;;5005055;28;20052;-74
2023/08/31 04:48:39;;;;;;;4.55;2.60;;;18.80;99.90;;;;;;5017308;28;20055;-75
2023/08/31 04:51:09;;;;;;;5.38;3.33;;;18.80;99.90;;;;;;5015051;28;20064;-77
2023/08/31 04:53:36;;;;;;;5.53;2.72;;;18.80;99.90;;;;;;5034675;28;20053;-75
2023/08/31 04:56:04;;;;;;;5.88;2.80;;;19.00;99.90;;;;;;5019883;28;20503;-75
2023/08/31 04:58:31;;;;;;;5.15;2.72;;;19.10;99.90;;;;;;5031942;28;20041;-74
2023/08/31 05:00:58;;;;;;;4.30;2.50;;;19.50;99.90;;;;;;5028764;28;20065;-74
2023/08/31 05:03:25;;;;;;;7.90;2.92;;;19.50;99.90;;;;;;5020049;28;20044;-72
2023/08/31 05:05:53;;;;;;;6.78;2.58;;;19.80;99.90;;;;;;5036589;28;20108;-74
2023/08/31 05:08:20;;;;;;;39.45;26.05;;;20.10;99.90;;;;;;5031575;28;20635;-74
2023/08/31 05:10:47;;;;;;;8.95;5.95;;;20.40;99.90;;;;;;4997611;28;20476;-75
2023/08/31 05:13:14;;;;;;;161.52;112.22;;;20.20;99.90;;;;;;5029849;28;20483;-75
2023/08/31 05:15:41;;;;;;;21.70;15.88;;;20.40;99.90;;;;;;5033744;28;20552;-75
2023/08/31 05:18:09;;;;;;;14.70;8.80;;;20.40;99.90;;;;;;5038248;28;20065;-75
2023/08/31 05:20:36;;;;;;;13.80;7.80;;;20.50;99.90;;;;;;5017853;28;20037;-75
2023/08/31 05:23:03;;;;;;;18.27;10.30;;;20.40;99.90;;;;;;5039468;28;20035;-74
2023/08/31 05:25:30;;;;;;;9.75;4.75;;;20.20;99.90;;;;;;5032969;28;20047;-76
2023/08/31 05:27:58;;;;;;;9.05;3.78;;;20.10;99.90;;;;;;5033442;28;20477;-76
2023/08/31 05:30:25;;;;;;;4.82;2.40;;;20.50;99.90;;;;;;5042692;28;20108;-71
2023/08/31 05:32:52;;;;;;;4.75;2.72;;;20.20;99.90;;;;;;5047319;28;20379;-72
2023/08/31 05:35:19;;;;;;;4.82;3.15;;;20.50;99.90;;;;;;5038320;28;20060;-72
2023/08/31 05:37:47;;;;;;;6.15;2.60;;;20.60;99.90;;;;;;5049594;28;20429;-72
2023/08/31 05:40:14;;;;;;;5.47;2.55;;;20.60;99.90;;;;;;5053488;28;20040;-75
2023/08/31 05:42:42;;;;;;;5.90;2.30;;;20.70;99.90;;;;;;5052692;28;20063;-74
2023/08/31 05:45:09;;;;;;;5.55;2.50;;;21.00;99.90;;;;;;5035731;28;20045;-72
2023/08/31 05:47:38;;;;;;;5.00;2.25;;;21.20;99.90;;;;;;5049930;28;20029;-74
2023/08/31 05:50:06;;;;;;;5.80;2.25;;;21.30;99.90;;;;;;5049309;28;20041;-76
2023/08/31 05:52:33;;;;;;;6.65;2.80;;;21.40;99.90;;;;;;5050004;28;20492;-72
2023/08/31 05:55:00;;;;;;;43.30;29.80;;;21.50;99.90;;;;;;5048772;28;20029;-73
2023/08/31 05:57:28;;;;;;;140.98;91.13;;;21.60;99.90;;;;;;5049705;28;20426;-72
2023/08/31 05:59:56;;;;;;;29.05;19.15;;;21.80;99.90;;;;;;5049550;28;20773;-75
2023/08/31 06:02:24;;;;;;;10.57;6.85;;;21.80;99.90;;;;;;5051026;28;20064;-76
2023/08/31 06:04:51;;;;;;;5.43;2.70;;;21.80;99.90;;;;;;5014354;28;20432;-75
2023/08/31 06:07:18;;;;;;;6.20;2.65;;;21.60;99.90;;;;;;5036800;28;20116;-77
2023/08/31 06:09:46;;;;;;;5.55;2.38;;;21.10;99.90;;;;;;5050058;28;20380;-74
2023/08/31 06:12:13;;;;;;;7.05;2.88;;;21.00;99.90;;;;;;5034983;28;20129;-78
2023/08/31 06:14:40;;;;;;;5.32;2.60;;;21.20;99.90;;;;;;5035632;28;20052;-77
2023/08/31 06:17:08;;;;;;;7.15;2.65;;;21.30;99.90;;;;;;5034392;28;20044;-75
2023/08/31 06:19:38;;;;;;;6.63;3.10;;;21.50;99.90;;;;;;5036812;28;20083;-73
2023/08/31 06:22:05;;;;;;;6.03;2.30;;;21.70;99.90;;;;;;5034840;28;20394;-75
2023/08/31 06:24:36;;;;;;;5.65;2.60;;;21.90;99.90;;;;;;5034416;28;20087;-74
2023/08/31 06:27:04;;;;;;;7.15;2.60;;;21.70;99.90;;;;;;5033438;28;20051;-75
2023/08/31 06:29:31;;;;;;;5.68;2.25;;;21.80;99.90;;;;;;5025046;28;20029;-84
2023/08/31 06:31:58;;;;;;;10.38;2.40;;;21.80;99.90;;;;;;5054193;28;20119;-73
2023/08/31 06:34:26;;;;;;;6.40;2.38;;;21.70;99.90;;;;;;5051571;28;20083;-74
2023/08/31 06:36:53;;;;;;;5.20;2.33;;;21.80;99.90;;;;;;5051972;28;20044;-75
2023/08/31 06:39:20;;;;;;;5.10;2.40;;;21.90;99.90;;;;;;5053280;28;20037;-74
2023/08/31 06:41:47;;;;;;;8.43;2.55;;;21.90;99.90;;;;;;5049337;28;20036;-74
2023/08/31 06:44:14;;;;;;;4.75;2.45;;;22.00;99.90;;;;;;5052816;28;20043;-75
2023/08/31 06:46:42;;;;;;;7.57;2.80;;;22.10;99.90;;;;;;5054475;28;20120;-74
2023/08/31 06:49:10;;;;;;;7.15;2.65;;;22.10;99.90;;;;;;5049541;28;20045;-73
2023/08/31 06:51:37;;;;;;;8.13;2.80;;;22.20;99.90;;;;;;5052902;28;20052;-74
2023/08/31 06:54:06;;;;;;;5.90;3.00;;;22.20;99.90;;;;;;5037006;28;20426;-75
2023/08/31 06:56:34;;;;;;;6.82;3.05;;;22.30;99.90;;;;;;5045482;28;20044;-74
2023/08/31 06:59:02;;;;;;;6.57;3.05;;;22.30;99.90;;;;;;5054407;28;20455;-77
2023/08/31 07:01:29;;;;;;;5.88;3.03;;;22.40;99.90;;;;;;5034889;28;20118;-75
2023/08/31 07:03:57;;;;;;;7.22;3.13;;;22.30;99.90;;;;;;5052369;28;20029;-74
2023/08/31 07:06:24;;;;;;;6.53;2.90;;;22.30;99.90;;;;;;5054221;28;20049;-73
2023/08/31 07:08:51;;;;;;;6.78;2.85;;;22.20;99.90;;;;;;5054913;28;20541;-75
2023/08/31 07:11:18;;;;;;;8.48;3.15;;;22.20;99.90;;;;;;5034426;28;20044;-74
2023/08/31 07:13:46;;;;;;;7.00;3.40;;;22.20;99.90;;;;;;5052869;28;20037;-78
2023/08/31 07:16:13;;;;;;;8.32;3.97;;;22.40;99.90;;;;;;5046284;28;20045;-77
2023/08/31 07:18:40;;;;;;;9.68;3.75;;;22.50;99.90;;;;;;5046398;28;20121;-74
2023/08/31 07:21:08;;;;;;;6.57;2.83;;;22.70;99.90;;;;;;5042464;28;20056;-76
2023/08/31 07:23:37;;;;;;;5.00;3.38;;;22.70;99.90;;;;;;5033303;28;20492;-76
2023/08/31 07:26:05;;;;;;;6.28;3.10;;;22.70;99.90;;;;;;5044548;28;20061;-75
2023/08/31 07:28:32;;;;;;;6.45;3.10;;;22.80;99.90;;;;;;5038791;28;20456;-74
2023/08/31 07:31:04;;;;;;;7.03;3.17;;;22.90;99.90;;;;;;5050260;28;20384;-75
2023/08/31 07:33:34;;;;;;;6.78;3.05;;;22.90;99.90;;;;;;5025077;28;20522;-76
2023/08/31 07:36:05;;;;;;;6.88;3.38;;;23.00;99.90;;;;;;5049981;28;20048;-76
2023/08/31 07:38:33;;;;;;;7.07;3.20;;;23.10;99.90;;;;;;5016330;28;20137;-75
2023/08/31 07:41:00;;;;;;;5.28;2.72;;;23.20;99.90;;;;;;5049824;28;20032;-75
2023/08/31 07:43:28;;;;;;;6.47;2.88;;;23.10;99.90;;;;;;5051036;28;20443;-76
2023/08/31 07:45:55;;;;;;;6.25;3.08;;;23.20;99.90;;;;;;5029488;28;20202;-76
2023/08/31 07:48:23;;;;;;;6.82;3.00;;;23.20;99.90;;;;;;5054271;28;20112;-82
2023/08/31 07:50:50;;;;;;;5.82;2.88;;;23.30;99.90;;;;;;5030293;28;20642;-75
2023/08/31 07:53:18;;;;;;;6.05;2.85;;;23.30;99.90;;;;;;5051406;28;20120;-75
2023/08/31 07:55:56;;;;;;;6.65;2.95;;;23.40;99.90;;;;;;5055743;28;20112;-75
2023/08/31 07:58:23;;;;;;;6.55;2.72;;;23.60;99.90;;;;;;5030040;28;20033;-75
2023/08/31 08:00:55;;;;;;;6.63;3.15;;;23.50;99.90;;;;;;5050914;28;20041;-75
2023/08/31 08:03:23;;;;;;;6.35;3.17;;;23.50;99.90;;;;;;5047745;28;20060;-74
2023/08/31 08:05:51;;;;;;;7.28;2.58;;;23.50;99.90;;;;;;5053681;28;20037;-74
2023/08/31 08:08:18;;;;;;;9.68;2.92;;;23.60;99.90;;;;;;5052070;28;20037;-75
2023/08/31 08:10:46;;;;;;;5.03;2.53;;;23.70;99.90;;;;;;5056307;28;20036;-80
2023/08/31 08:13:13;;;;;;;7.28;2.65;;;23.60;99.90;;;;;;5058614;28;20044;-77
2023/08/31 08:15:41;;;;;;;8.32;3.05;;;23.70;99.90;;;;;;5057731;28;20037;-75
2023/08/31 08:18:08;;;;;;;5.55;2.47;;;23.60;99.90;;;;;;5052874;28;20040;-74
2023/08/31 08:20:36;;;;;;;7.32;2.97;;;23.70;99.90;;;;;;5053170;28;20124;-73
2023/08/31 08:23:03;;;;;;;7.88;2.60;;;23.80;99.90;;;;;;5051280;28;20064;-78
2023/08/31 08:25:30;;;;;;;7.30;2.25;;;23.80;99.90;;;;;;5034986;28;20492;-74
2023/08/31 08:27:57;;;;;;;10.00;4.25;;;23.90;99.90;;;;;;5033729;28;20132;-77
2023/08/31 08:30:25;;;;;;;6.90;2.70;;;24.00;99.90;;;;;;5054725;28;20686;-76
2023/08/31 08:32:53;;;;;;;6.90;2.50;;;24.00;99.90;;;;;;5047857;28;20033;-77
2023/08/31 08:35:21;;;;;;;5.22;2.40;;;24.10;99.90;;;;;;5050963;28;20154;-82
2023/08/31 08:37:49;;;;;;;6.07;2.90;;;24.40;99.90;;;;;;5031685;28;20068;-74
2023/08/31 08:40:16;;;;;;;5.60;2.75;;;24.50;99.90;;;;;;5050924;28;20029;-75
2023/08/31 08:42:47;;;;;;;8.23;2.80;;;24.70;99.70;;;;;;5016899;28;20053;-78
2023/08/31 08:45:17;;;;;;;6.18;2.90;;;24.70;99.60;;;;;;5032851;28;20047;-76
2023/08/31 08:47:46;;;;;;;6.30;2.30;;;24.90;99.40;;;;;;5032753;28;20120;-73
2023/08/31 08:50:13;;;;;;;5.55;2.55;;;25.00;98.40;;;;;;5031414;28;20052;-74
2023/08/31 08:52:42;;;;;;;8.85;2.47;;;25.00;98.70;;;;;;5049257;28;20125;-74
2023/08/31 08:55:09;;;;;;;4.80;2.35;;;25.20;98.10;;;;;;5047562;28;20492;-76
2023/08/31 08:57:38;;;;;;;6.65;3.03;;;25.50;98.00;;;;;;5041257;28;20064;-75
2023/08/31 09:00:07;;;;;;;8.10;2.70;;;25.70;97.90;;;;;;5044435;28;20488;-74
2023/08/31 09:02:34;;;;;;;8.00;2.97;;;25.80;97.30;;;;;;5048975;28;20286;-75
2023/08/31 09:05:03;;;;;;;8.18;3.03;;;26.00;96.80;;;;;;5046704;28;20481;-74
2023/08/31 09:07:36;;;;;;;4.65;2.30;;;26.00;96.50;;;;;;5052298;28;20041;-75
2023/08/31 09:10:04;;;;;;;16.98;5.30;;;26.10;95.80;;;;;;5032204;28;20083;-74
2023/08/31 09:12:36;;;;;;;12.40;3.78;;;26.10;95.30;;;;;;5042156;28;20562;-76
2023/08/31 09:15:05;;;;;;;12.23;3.72;;;26.30;95.10;;;;;;5017592;28;20043;-76
2023/08/31 09:17:41;;;;;;;14.30;4.78;;;26.40;94.90;;;;;;5049196;28;20116;-74
2023/08/31 09:20:09;;;;;;;7.10;2.80;;;26.70;94.60;;;;;;5048738;28;20029;-74
2023/08/31 09:22:44;;;;;;;9.73;3.13;;;26.70;93.40;;;;;;5054594;28;20044;-74
2023/08/31 09:25:12;;;;;;;5.85;2.72;;;26.80;92.70;;;;;;5019264;28;20037;-75
2023/08/31 09:27:40;;;;;;;9.10;2.90;;;26.70;92.70;;;;;;5050242;28;20519;-78
2023/08/31 09:30:08;;;;;;;8.43;2.70;;;26.80;92.60;;;;;;5031904;28;20048;-73
2023/08/31 09:32:36;;;;;;;8.63;2.92;;;26.80;91.70;;;;;;5034388;28;20037;-73
2023/08/31 09:35:08;;;;;;;7.40;2.60;;;26.90;91.10;;;;;;5049187;28;20041;-74
2023/08/31 09:37:57;;;;;;;6.95;2.47;;;26.80;90.50;;;;;;5049770;28;20092;-77
2023/08/31 09:40:25;;;;;;;7.40;2.35;;;26.80;90.70;;;;;;5035906;28;20043;-75
2023/08/31 09:42:53;;;;;;;6.25;2.67;;;27.00;90.50;;;;;;5034328;28;20060;-74
2023/08/31 09:45:31;;;;;;;6.38;2.92;;;27.30;89.00;;;;;;5032004;28;20159;-72
2023/08/31 09:48:14;;;;;;;8.82;2.70;;;27.50;89.40;;;;;;5033739;28;20295;-75
2023/08/31 09:50:45;;;;;;;7.57;2.60;;;27.70;87.60;;;;;;5050149;28;20380;-74
2023/08/31 09:53:16;;;;;;;7.63;2.90;;;27.50;85.60;;;;;;5030667;28;20384;-73
2023/08/31 09:55:44;;;;;;;7.47;2.60;;;27.40;85.20;;;;;;5050243;28;20060;-73
2023/08/31 09:58:12;;;;;;;6.15;2.58;;;27.60;83.30;;;;;;5016953;28;20456;-76
2023/08/31 10:00:44;;;;;;;7.30;2.55;;;27.80;83.80;;;;;;5047262;28;20033;-77
2023/08/31 10:03:15;;;;;;;7.55;2.60;;;28.30;83.80;;;;;;5013218;28;20384;-73
2023/08/31 10:05:49;;;;;;;5.45;2.53;;;28.50;82.70;;;;;;5049465;28;20417;-73
2023/08/31 10:08:17;;;;;;;5.28;2.28;;;28.60;82.10;;;;;;5032739;28;20045;-77
2023/08/31 10:10:45;;;;;;;5.90;2.78;;;28.70;80.60;;;;;;5015848;28;20523;-74
2023/08/31 10:13:15;;;;;;;8.48;2.92;;;28.60;79.80;;;;;;5049037;28;20217;-74
2023/08/31 10:15:44;;;;;;;5.80;2.90;;;28.50;80.60;;;;;;5049788;28;20076;-75
2023/08/31 10:18:11;;;;;;;5.68;2.80;;;28.60;80.80;;;;;;5049248;28;20534;-76
2023/08/31 10:20:44;;;;;;;5.38;2.50;;;28.00;71.40;;;;;;5023249;28;20065;-74
2023/08/31 10:23:12;;;;;;;5.60;2.10;;;27.70;70.60;;;;;;5047655;28;20221;-74
2023/08/31 10:25:45;;;;;;;6.40;2.55;;;28.00;69.90;;;;;;5050799;28;20045;-74
2023/08/31 10:28:27;;;;;;;5.22;2.55;;;28.00;67.00;;;;;;5049699;28;20028;-76
2023/08/31 10:31:05;;;;;;;6.47;2.53;;;28.20;66.70;;;;;;5036293;28;20388;-76
2023/08/31 10:33:47;;;;;;;5.50;2.65;;;28.30;66.00;;;;;;5033606;28;20037;-76
2023/08/31 10:36:18;;;;;;;5.20;2.50;;;28.50;66.60;;;;;;5049518;28;20061;-75
2023/08/31 10:38:59;;;;;;;6.10;2.45;;;28.00;65.10;;;;;;5044922;28;20381;-76
2023/08/31 10:41:33;;;;;;;6.60;2.35;;;27.80;66.80;;;;;;5043657;28;20052;-75
2023/08/31 10:44:23;;;;;;;7.00;2.42;;;27.80;64.80;;;;;;5046707;28;20064;-76
2023/08/31 10:46:52;;;;;;;7.18;2.70;;;27.50;64.50;;;;;;5035234;28;20085;-80
2023/08/31 10:49:22;;;;;;;9.57;3.03;;;27.50;62.80;;;;;;5040322;28;20032;-77
2023/08/31 10:52:18;;;;;;;18.33;3.60;;;27.30;63.20;;;;;;5054308;28;20032;-77
2023/08/31 10:54:55;;;;;;;7.75;3.30;;;27.10;63.20;;;;;;5040409;28;20029;-79
2023/08/31 10:57:31;;;;;;;5.45;2.42;;;27.70;61.40;;;;;;5034318;28;20049;-78
2023/08/31 11:00:00;;;;;;;12.23;2.95;;;27.30;60.80;;;;;;5044050;28;20052;-81
2023/08/31 11:02:44;;;;;;;6.53;2.60;;;27.00;61.30;;;;;;5028217;28;20122;-76
2023/08/31 11:05:17;;;;;;;5.45;2.35;;;27.20;62.20;;;;;;5054162;28;20108;-78
2023/08/31 11:07:47;;;;;;;5.53;2.53;;;26.90;61.30;;;;;;5056343;28;20120;-80
2023/08/31 11:10:33;;;;;;;6.30;3.05;;;26.90;60.40;;;;;;5036615;28;20033;-77
2023/08/31 11:13:02;;;;;;;8.40;2.78;;;27.00;60.90;;;;;;5054298;28;20052;-77
2023/08/31 11:15:31;;;;;;;5.60;2.47;;;27.10;64.30;;;;;;5040155;28;20037;-77
2023/08/31 11:18:02;;;;;;;5.38;2.70;;;26.90;67.70;;;;;;5042167;28;20118;-77
2023/08/31 11:20:31;;;;;;;;;;;26.90;68.90;;;;;;5040586;28;20072;-78
2023/08/31 11:22:59;;;;;;;5.70;2.30;;;27.00;68.20;;;;;;5057427;28;19971;-76
2023/08/31 11:25:31;;;;;;;5.57;2.60;;;27.10;67.70;;;;;;5041566;28;20045;-76
2023/08/31 11:28:04;;;;;;;10.43;2.80;;;27.00;68.90;;;;;;5037472;28;20044;-78
2023/08/31 11:30:34;;;;;;;6.18;2.40;;;27.00;68.30;;;;;;5055886;28;20033;-76
2023/08/31 11:33:04;;;;;;;5.88;2.75;;;26.80;69.40;;;;;;5036716;28;20048;-78
2023/08/31 11:35:43;;;;;;;6.03;2.33;;;26.70;69.80;;;;;;5037523;28;20029;-77
2023/08/31 11:38:12;;;;;;;7.35;2.83;;;26.70;69.40;;;;;;5038011;28;20111;-78
2023/08/31 11:40:42;;;;;;;4.68;2.47;;;26.70;68.10;;;;;;5055074;28;20053;-76
2023/08/31 11:43:18;;;;;;;7.38;2.70;;;26.70;68.60;;;;;;5052602;28;20041;-78
2023/08/31 11:46:00;;;;;;;4.72;2.30;;;26.70;68.60;;;;;;5059577;28;20070;-77
2023/08/31 11:48:31;;;;;;;5.07;2.20;;;26.60;68.90;;;;;;5042185;28;20037;-77
2023/08/31 11:51:04;;;;;;;6.05;2.80;;;26.60;68.50;;;;;;5022427;28;20128;-77
2023/08/31 11:53:31;;;;;;;6.13;2.17;;;26.40;66.00;;;;;;5032813;28;20041;-78
2023/08/31 11:56:04;;;;;;;5.88;2.65;;;26.30;64.80;;;;;;5053870;28;20028;-77
2023/08/31 11:58:42;;;;;;;7.32;2.90;;;26.30;65.10;;;;;;5035320;28;20053;-74
2023/08/31 12:01:28;;;;;;;6.72;2.40;;;26.20;64.60;;;;;;5045725;28;20041;-77
2023/08/31 12:04:00;;;;;;;7.20;2.47;;;26.00;64.80;;;;;;5067295;28;20116;-75
2023/08/31 12:06:28;;;;;;;6.88;2.53;;;26.10;65.40;;;;;;5059954;28;20047;-78
2023/08/31 12:08:55;;;;;;;6.53;2.75;;;26.20;65.20;;;;;;5058169;28;20041;-75
2023/08/31 12:11:32;;;;;;;9.50;2.60;;;26.10;64.40;;;;;;5058706;28;20096;-77
2023/08/31 12:14:01;;;;;;;4.82;2.00;;;26.20;65.30;;;;;;5044080;28;20067;-77
2023/08/31 12:16:36;;;;;;;5.38;2.65;;;26.20;65.10;;;;;;5060099;28;20416;-76
2023/08/31 12:19:05;;;;;;;5.97;2.20;;;26.10;64.70;;;;;;5060714;28;20040;-76
2023/08/31 12:21:35;;;;;;;7.05;2.42;;;26.20;65.00;;;;;;5057798;28;20092;-79
2023/08/31 12:24:03;;;;;;;5.30;2.22;;;26.30;65.50;;;;;;5042176;28;20495;-77
2023/08/31 12:26:31;;;;;;;6.50;2.38;;;26.50;64.50;;;;;;5057708;28;20047;-76
2023/08/31 12:28:58;;;;;;;6.03;2.45;;;26.60;65.00;;;;;;5038750;28;20404;-77
2023/08/31 12:31:30;;;;;;;5.22;2.30;;;26.60;64.30;;;;;;5056358;28;20133;-80
2023/08/31 12:34:00;;;;;;;6.32;2.42;;;26.50;64.50;;;;;;5044898;28;20029;-77
2023/08/31 12:36:29;;;;;;;4.85;2.45;;;26.50;65.50;;;;;;5024377;28;20036;-78
2023/08/31 12:38:58;;;;;;;6.03;2.33;;;26.60;65.30;;;;;;5058639;28;20112;-78
2023/08/31 12:41:41;;;;;;;4.57;2.33;;;26.70;65.40;;;;;;5040450;28;20037;-79
2023/08/31 12:44:09;;;;;;;7.20;2.40;;;26.40;64.90;;;;;;5043821;28;20135;-74
2023/08/31 12:46:36;;;;;;;5.63;2.22;;;26.30;65.60;;;;;;5056630;28;20514;-78
2023/08/31 12:49:03;;;;;;;5.15;2.03;;;26.10;64.90;;;;;;5040605;28;20040;-77
2023/08/31 12:51:31;;;;;;;6.25;1.90;;;26.10;65.00;;;;;;5056458;28;20037;-77
2023/08/31 12:53:59;;;;;;;6.40;2.42;;;26.00;65.20;;;;;;5030588;28;20034;-75
2023/08/31 12:56:26;;;;;;;7.35;2.10;;;26.00;65.60;;;;;;5064268;28;20037;-77